createdAt,value
2019-02-02T00:01:32.478Z,2.08
2019-02-02T00:04:47.729Z,2.14
2019-02-02T00:08:03.244Z,2.18
2019-02-02T00:11:18.434Z,2.20
2019-02-02T00:14:33.746Z,2.16
2019-02-02T00:17:49.103Z,2.07
2019-02-02T00:21:04.939Z,2.04
2019-02-02T00:24:20.433Z,2.10
2019-02-02T00:27:41.565Z,2.09
2019-02-02T00:30:54.466Z,2.12
2019-02-02T00:34:09.684Z,2.11
2019-02-02T00:37:25.037Z,2.13
2019-02-02T00:40:40.425Z,2.13
2019-02-02T00:43:55.631Z,2.14
2019-02-02T00:47:10.813Z,2.17
2019-02-02T00:50:26.811Z,2.12
2019-02-02T00:53:42.065Z,2.02
2019-02-02T00:56:57.511Z,2.07
2019-02-02T01:00:13.028Z,2.10
2019-02-02T01:03:28.138Z,2.14
2019-02-02T01:06:43.595Z,2.15
2019-02-02T01:09:59.267Z,2.15
2019-02-02T01:13:15.282Z,2.07
2019-02-02T01:16:30.467Z,2.07
2019-02-02T01:19:45.577Z,2.11
2019-02-02T01:23:00.959Z,2.16
2019-02-02T01:26:16.311Z,2.15
2019-02-02T01:29:31.664Z,2.01
2019-02-02T01:32:47.378Z,1.96
2019-02-02T01:36:02.941Z,2.06
2019-02-02T01:39:18.341Z,2.13
2019-02-02T01:42:33.715Z,2.18
2019-02-02T01:45:48.976Z,2.11
2019-02-02T01:49:04.434Z,2.15
2019-02-02T01:52:19.748Z,2.16
2019-02-02T01:55:35.123Z,2.20
2019-02-02T01:58:50.607Z,2.22
2019-02-02T02:02:05.967Z,2.13
2019-02-02T02:05:21.698Z,2.06
2019-02-02T02:08:37.169Z,2.09
2019-02-02T02:11:52.467Z,2.15
2019-02-02T02:15:07.863Z,2.20
2019-02-02T02:18:23.748Z,2.17
2019-02-02T02:21:39.247Z,2.17
2019-02-02T02:24:54.511Z,2.20
2019-02-02T02:28:09.629Z,2.16
2019-02-02T02:31:24.695Z,1.99
2019-02-02T02:34:39.954Z,2.07
2019-02-02T02:37:55.095Z,2.08
2019-02-02T02:41:10.513Z,2.01
2019-02-02T02:44:26.504Z,2.02
2019-02-02T02:47:41.807Z,2.10
2019-02-02T02:50:57.289Z,2.17
2019-02-02T02:54:12.515Z,2.18
2019-02-02T02:57:27.696Z,2.21
2019-02-02T03:00:43.216Z,2.22
2019-02-02T03:03:58.524Z,2.16
2019-02-02T03:07:13.649Z,2.19
2019-02-02T03:10:28.866Z,2.19
2019-02-02T03:13:44.220Z,2.09
2019-02-02T03:16:59.483Z,2.08
2019-02-02T03:20:15.217Z,2.13
2019-02-02T03:23:30.382Z,2.16
2019-02-02T03:26:45.627Z,2.18
2019-02-02T03:30:00.917Z,2.19
2019-02-02T03:33:16.141Z,2.20
2019-02-02T03:36:31.363Z,2.17
2019-02-02T03:39:46.626Z,2.14
2019-02-02T03:43:01.999Z,2.14
2019-02-02T03:46:17.196Z,2.21
2019-02-02T03:49:32.517Z,2.20
2019-02-02T03:52:47.322Z,2.12
2019-02-02T03:56:02.477Z,2.15
2019-02-02T03:59:17.708Z,2.04
2019-02-02T04:02:32.779Z,1.87
2019-02-02T04:05:48.111Z,1.89
2019-02-02T04:09:03.405Z,1.91
2019-02-02T04:12:18.772Z,1.96
2019-02-02T04:15:34.290Z,1.92
2019-02-02T04:18:49.652Z,2.02
2019-02-02T04:22:05.124Z,2.08
2019-02-02T04:25:21.439Z,2.14
2019-02-02T04:28:37.103Z,2.15
2019-02-02T04:31:52.816Z,2.19
2019-02-02T04:35:08.876Z,2.18
2019-02-02T04:38:24.157Z,2.21
2019-02-02T04:41:39.323Z,2.24
2019-02-02T04:44:54.768Z,2.25
2019-02-02T04:48:10.192Z,2.15
2019-02-02T04:51:25.431Z,2.17
2019-02-02T04:54:40.785Z,2.20
2019-02-02T04:57:55.921Z,2.22
2019-02-02T05:01:11.467Z,2.22
2019-02-02T05:04:26.749Z,2.24
2019-02-02T05:07:42.180Z,2.21
2019-02-02T05:10:57.299Z,2.20
2019-02-02T05:14:12.591Z,2.20
2019-02-02T05:17:28.516Z,2.20
2019-02-02T05:20:43.889Z,2.23
2019-02-02T05:23:59.376Z,2.23
2019-02-02T05:27:14.736Z,2.23
2019-02-02T05:30:29.785Z,2.24
2019-02-02T05:33:45.138Z,2.26
2019-02-02T05:37:00.413Z,2.28
2019-02-02T05:40:15.477Z,2.22
2019-02-02T05:43:32.116Z,2.15
2019-02-02T05:46:47.412Z,2.20
2019-02-02T05:50:02.604Z,2.23
2019-02-02T05:53:17.860Z,2.25
2019-02-02T05:56:33.131Z,2.27
2019-02-02T05:59:52.954Z,2.26
2019-02-02T06:03:05.603Z,2.26
2019-02-02T06:06:20.721Z,2.25
2019-02-02T06:09:35.834Z,2.28
2019-02-02T06:12:51.076Z,2.28
2019-02-02T06:16:06.693Z,2.19
2019-02-02T06:19:22.197Z,2.13
2019-02-02T06:22:37.454Z,2.13
2019-02-02T06:25:52.884Z,2.01
2019-02-02T06:29:08.213Z,1.95
2019-02-02T06:32:23.599Z,1.94
2019-02-02T06:35:38.867Z,2.05
2019-02-02T06:38:54.066Z,2.11
2019-02-02T06:42:09.196Z,2.14
2019-02-02T06:45:26.690Z,2.18
2019-02-02T06:48:41.935Z,2.19
2019-02-02T06:51:57.957Z,2.15
2019-02-02T06:55:13.073Z,2.20
2019-02-02T06:58:28.579Z,2.24
2019-02-02T07:01:43.866Z,2.16
2019-02-02T07:04:59.151Z,2.10
2019-02-02T07:08:14.756Z,1.86
2019-02-02T07:11:30.064Z,1.91
2019-02-02T07:14:45.237Z,2.04
2019-02-02T07:18:00.651Z,2.13
2019-02-02T07:21:16.166Z,2.20
2019-02-02T07:24:31.317Z,2.13
2019-02-02T07:27:46.540Z,2.11
2019-02-02T07:31:01.678Z,2.04
2019-02-02T07:34:17.137Z,2.05
2019-02-02T07:37:32.920Z,2.05
2019-02-02T07:40:48.334Z,2.15
2019-02-02T07:44:03.851Z,2.23
2019-02-02T07:47:19.062Z,2.28
2019-02-02T07:50:34.692Z,2.30
2019-02-02T07:53:49.852Z,2.44
2019-02-02T07:57:05.305Z,2.52
2019-02-02T08:00:39.600Z,2.64
2019-02-02T08:03:45.608Z,2.72
2019-02-02T08:07:00.721Z,2.88
2019-02-02T08:10:16.148Z,2.99
2019-02-02T08:13:31.348Z,3.00
2019-02-02T08:16:46.483Z,3.01
2019-02-02T08:20:01.988Z,2.99
2019-02-02T08:23:17.844Z,3.06
2019-02-02T08:26:33.392Z,3.21
2019-02-02T08:29:48.933Z,3.26
2019-02-02T08:33:04.784Z,3.32
2019-02-02T08:36:20.088Z,3.44
2019-02-02T08:39:35.440Z,3.53
2019-02-02T08:42:50.640Z,3.61
2019-02-02T08:46:06.263Z,3.58
2019-02-02T08:49:21.644Z,3.63
2019-02-02T08:52:36.854Z,3.66
2019-02-02T08:55:52.361Z,3.69
2019-02-02T08:59:07.764Z,3.74
2019-02-02T09:02:22.890Z,3.80
2019-02-02T09:05:38.182Z,3.83
2019-02-02T09:08:53.471Z,3.91
2019-02-02T09:12:08.917Z,4.00
2019-02-02T09:15:24.422Z,4.19
2019-02-02T09:18:39.738Z,4.34
2019-02-02T09:21:55.036Z,4.56
2019-02-02T09:25:11.820Z,4.93
2019-02-02T09:28:27.201Z,5.13
2019-02-02T09:31:42.168Z,5.01
2019-02-02T09:34:57.687Z,4.84
2019-02-02T09:38:12.937Z,4.87
2019-02-02T09:41:29.824Z,4.96
2019-02-02T09:44:45.261Z,5.12
2019-02-02T09:48:00.515Z,4.90
2019-02-02T09:51:15.912Z,4.88
2019-02-02T09:54:32.005Z,4.78
2019-02-02T09:57:47.509Z,4.70
2019-02-02T10:01:02.991Z,4.89
2019-02-02T10:08:32.690Z,5.00
2019-02-02T10:11:48.338Z,4.75
2019-02-02T10:15:06.396Z,4.64
2019-02-02T10:18:22.068Z,4.76
2019-02-02T10:21:38.461Z,5.01
2019-02-02T10:24:54.025Z,5.13
2019-02-02T10:28:09.433Z,5.22
2019-02-02T10:31:24.951Z,5.28
2019-02-02T10:34:41.072Z,5.31
2019-02-02T10:37:56.632Z,5.48
2019-02-02T10:41:11.751Z,5.59
2019-02-02T10:44:27.240Z,5.58
2019-02-02T10:47:43.012Z,5.35
2019-02-02T10:50:58.549Z,5.12
2019-02-02T10:54:14.031Z,5.05
2019-02-02T10:57:30.332Z,4.92
2019-02-02T11:00:45.903Z,4.93
2019-02-02T11:04:01.261Z,4.95
2019-02-02T11:07:17.002Z,4.95
2019-02-02T11:10:32.846Z,4.85
2019-02-02T11:13:48.221Z,4.75
2019-02-02T11:17:03.397Z,4.78
2019-02-02T11:20:19.721Z,4.75
2019-02-02T11:23:35.167Z,4.66
2019-02-02T11:26:50.593Z,4.68
2019-02-02T11:30:05.806Z,4.74
2019-02-02T11:33:21.179Z,4.87
2019-02-02T11:36:36.495Z,4.94
2019-02-02T11:39:51.738Z,5.06
2019-02-02T11:43:07.002Z,5.10
2019-02-02T11:46:22.444Z,5.26
2019-02-02T11:49:38.053Z,5.30
2019-02-02T11:52:53.295Z,5.24
2019-02-02T11:56:08.898Z,5.04
2019-02-02T11:59:24.147Z,4.94
2019-02-02T12:02:49.138Z,5.01
2019-02-02T12:05:56.799Z,5.29
2019-02-02T12:09:12.008Z,5.46
2019-02-02T12:12:27.254Z,5.46
2019-02-02T12:15:42.498Z,5.50
2019-02-02T12:18:58.099Z,5.53
2019-02-02T12:22:13.696Z,5.67
2019-02-02T12:25:29.252Z,5.66
2019-02-02T12:28:44.452Z,5.58
2019-02-02T12:31:59.860Z,5.44
2019-02-02T12:35:17.991Z,5.78
2019-02-02T12:38:33.558Z,5.52
2019-02-02T12:41:48.981Z,5.61
2019-02-02T12:45:05.158Z,5.89
2019-02-02T12:48:20.592Z,5.97
2019-02-02T12:51:35.728Z,6.21
2019-02-02T12:54:50.911Z,6.41
2019-02-02T12:58:05.922Z,6.42
2019-02-02T13:01:21.429Z,6.26
2019-02-02T13:04:36.731Z,6.21
2019-02-02T13:07:52.878Z,6.30
2019-02-02T13:11:08.435Z,6.28
2019-02-02T13:14:23.775Z,6.36
2019-02-02T13:17:39.636Z,6.35
2019-02-02T13:20:55.032Z,6.42
2019-02-02T13:24:10.283Z,6.27
2019-02-02T13:27:25.807Z,6.31
2019-02-02T13:30:41.297Z,6.44
2019-02-02T13:33:56.911Z,6.55
2019-02-02T13:37:13.003Z,6.48
2019-02-02T13:40:28.336Z,6.28
2019-02-02T13:43:44.407Z,6.41
2019-02-02T13:46:59.963Z,6.72
2019-02-02T13:50:16.077Z,7.00
2019-02-02T13:53:31.456Z,7.28
2019-02-02T13:56:49.685Z,7.29
2019-02-02T14:00:03.650Z,7.50
2019-02-02T14:03:18.839Z,7.63
2019-02-02T14:06:34.471Z,7.85
2019-02-02T14:09:50.368Z,7.98
2019-02-02T14:13:05.651Z,8.11
2019-02-02T14:16:22.107Z,8.28
2019-02-02T14:19:37.600Z,8.18
2019-02-02T14:22:57.227Z,8.06
2019-02-02T14:26:13.027Z,7.93
2019-02-02T14:29:28.339Z,7.85
2019-02-02T14:32:43.759Z,7.73
2019-02-02T14:36:01.742Z,7.72
2019-02-02T14:39:16.082Z,7.62
2019-02-02T14:42:31.537Z,7.35
2019-02-02T14:45:46.699Z,7.25
2019-02-02T14:49:01.845Z,7.22
2019-02-02T14:52:17.481Z,7.11
2019-02-02T14:55:33.028Z,6.75
2019-02-02T14:58:49.192Z,6.66
2019-02-02T15:02:04.881Z,6.05
2019-02-02T15:05:21.354Z,5.75
2019-02-02T15:08:37.336Z,5.84
2019-02-02T15:11:52.872Z,5.80
2019-02-02T15:15:08.136Z,6.03
2019-02-02T15:18:23.631Z,6.19
2019-02-02T15:21:39.056Z,6.32
2019-02-02T15:24:54.480Z,6.38
2019-02-02T15:28:10.395Z,6.38
2019-02-02T15:31:26.230Z,6.32
2019-02-02T15:34:41.320Z,6.14
2019-02-02T15:37:56.688Z,6.07
2019-02-02T15:41:11.953Z,5.83
2019-02-02T15:44:26.387Z,5.45
2019-02-02T15:47:41.941Z,5.31
2019-02-02T15:50:57.326Z,5.26
2019-02-02T15:54:12.543Z,5.03
2019-02-02T15:57:27.950Z,4.82
2019-02-02T16:00:43.379Z,4.71
2019-02-02T16:03:58.879Z,4.73
2019-02-02T16:07:13.948Z,4.80
2019-02-02T16:10:30.085Z,4.73
2019-02-02T16:13:45.423Z,4.64
2019-02-02T16:17:03.195Z,4.53
2019-02-02T16:20:20.583Z,4.41
2019-02-02T16:23:35.871Z,4.31
2019-02-02T16:26:51.057Z,4.25
2019-02-02T16:30:07.700Z,4.18
2019-02-02T16:33:23.281Z,4.09
2019-02-02T16:36:38.643Z,4.07
2019-02-02T16:39:53.867Z,3.94
2019-02-02T16:43:09.457Z,3.93
2019-02-02T16:46:24.710Z,3.97
2019-02-02T16:49:40.176Z,3.93
2019-02-02T16:52:55.532Z,3.80
2019-02-02T16:56:10.967Z,3.78
2019-02-02T16:59:26.383Z,3.77
2019-02-02T17:02:42.645Z,3.79
2019-02-02T17:05:57.968Z,3.80
2019-02-02T17:09:14.143Z,3.69
2019-02-02T17:12:29.513Z,3.69
2019-02-02T17:15:45.731Z,3.69
2019-02-02T17:19:01.200Z,3.67
2019-02-02T17:22:16.595Z,3.68
2019-02-02T17:25:31.828Z,3.70
2019-02-02T17:28:47.018Z,3.73
2019-02-02T17:32:02.211Z,3.72
2019-02-02T17:35:17.686Z,3.70
2019-02-02T17:38:33.008Z,3.64
2019-02-02T17:41:48.203Z,3.62
2019-02-02T17:45:03.397Z,3.56
2019-02-02T17:48:19.121Z,3.40
2019-02-02T17:51:34.252Z,3.36
2019-02-02T17:54:49.714Z,3.32
2019-02-02T17:58:05.066Z,3.35
2019-02-02T18:01:20.299Z,3.39
2019-02-02T18:04:39.943Z,3.41
2019-02-02T18:07:52.947Z,3.36
2019-02-02T18:11:08.299Z,3.29
2019-02-02T18:14:23.516Z,3.29
2019-02-02T18:17:38.897Z,3.28
2019-02-02T18:20:54.706Z,3.30
2019-02-02T18:24:09.863Z,3.33
2019-02-02T18:27:25.290Z,3.32
2019-02-02T18:30:40.720Z,3.30
2019-02-02T18:33:56.683Z,3.19
2019-02-02T18:37:12.712Z,3.15
2019-02-02T18:40:29.700Z,2.99
2019-02-02T18:43:45.707Z,3.04
2019-02-02T18:47:00.974Z,3.13
2019-02-02T18:50:16.483Z,3.08
2019-02-02T18:53:31.672Z,3.04
2019-02-02T18:56:46.972Z,3.04
2019-02-02T19:00:02.151Z,2.86
2019-02-02T19:03:17.955Z,2.81
2019-02-02T19:06:34.184Z,2.95
2019-02-02T19:09:49.588Z,3.08
2019-02-02T19:13:05.269Z,3.18
2019-02-02T19:16:21.225Z,3.15
2019-02-02T19:19:36.413Z,3.19
2019-02-02T19:22:52.739Z,3.23
2019-02-02T19:26:08.106Z,3.27
2019-02-02T19:29:23.444Z,3.33
2019-02-02T19:32:39.792Z,3.39
2019-02-02T19:35:55.027Z,3.41
2019-02-02T19:39:10.638Z,3.42
2019-02-02T19:42:25.881Z,3.42
2019-02-02T19:45:41.870Z,3.44
2019-02-02T19:48:57.264Z,3.27
2019-02-02T19:52:12.499Z,3.17
2019-02-02T19:55:27.883Z,3.23
2019-02-02T19:58:43.219Z,3.29
2019-02-02T20:01:59.090Z,3.26
2019-02-02T20:05:14.271Z,3.24
2019-02-02T20:08:29.740Z,3.30
2019-02-02T20:11:44.927Z,3.36
2019-02-02T20:15:00.462Z,3.30
2019-02-02T20:18:15.762Z,3.35
2019-02-02T20:21:30.933Z,3.29
2019-02-02T20:24:47.004Z,3.30
2019-02-02T20:28:02.355Z,3.25
2019-02-02T20:31:18.175Z,3.28
2019-02-02T20:34:33.324Z,3.32
2019-02-02T20:37:48.795Z,3.34
2019-02-02T20:41:03.956Z,3.36
2019-02-02T20:44:19.122Z,3.37
2019-02-02T20:47:35.498Z,3.49
2019-02-02T20:50:50.853Z,3.45
2019-02-02T20:54:06.399Z,3.46
2019-02-02T20:57:21.644Z,3.55
2019-02-02T21:00:36.581Z,3.58
2019-02-02T21:03:52.403Z,3.58
2019-02-02T21:07:07.633Z,3.64
2019-02-02T21:10:22.844Z,3.62
2019-02-02T21:13:38.278Z,3.53
2019-02-02T21:16:53.553Z,3.66
2019-02-02T21:20:12.105Z,3.70
2019-02-02T21:23:27.570Z,3.78
2019-02-02T21:26:43.496Z,3.72
2019-02-02T21:29:59.157Z,3.70
2019-02-02T21:33:14.245Z,3.78
2019-02-02T21:36:29.489Z,3.84
2019-02-02T21:39:44.795Z,3.84
2019-02-02T21:43:00.551Z,3.84
2019-02-02T21:46:16.011Z,3.85
2019-02-02T21:49:31.348Z,3.71
2019-02-02T21:52:46.827Z,3.71
2019-02-02T21:56:01.969Z,3.65
2019-02-02T21:59:17.552Z,3.64
2019-02-02T22:02:33.014Z,3.61
2019-02-02T22:05:48.269Z,3.52
2019-02-02T22:09:04.604Z,3.45
2019-02-02T22:12:20.810Z,3.45
2019-02-02T22:15:36.091Z,3.41
2019-02-02T22:18:51.381Z,3.30
2019-02-02T22:22:06.490Z,3.40
2019-02-02T22:25:22.869Z,3.32
2019-02-02T22:28:38.038Z,3.21
2019-02-02T22:31:54.144Z,3.19
2019-02-02T22:35:09.513Z,3.25
2019-02-02T22:38:24.653Z,3.33
2019-02-02T22:41:39.789Z,3.23
2019-02-02T22:44:55.778Z,3.13
2019-02-02T22:48:11.217Z,3.06
2019-02-02T22:51:26.415Z,3.00
2019-02-02T22:54:42.407Z,2.99
2019-02-02T22:57:58.021Z,2.97
2019-02-02T23:01:22.633Z,2.88
2019-02-02T23:05:02.124Z,2.92
2019-02-02T23:08:52.080Z,2.91
2019-02-02T23:12:35.043Z,2.91
2019-02-02T23:16:20.875Z,2.86
2019-02-02T23:19:36.239Z,2.80
2019-02-02T23:22:51.697Z,2.89
2019-02-02T23:26:07.015Z,2.77
2019-02-02T23:29:22.283Z,2.76
2019-02-02T23:32:37.648Z,2.70
2019-02-02T23:35:53.190Z,2.63
2019-02-02T23:39:08.305Z,2.61
2019-02-02T23:42:23.920Z,2.76
2019-02-02T23:45:39.120Z,2.86
2019-02-02T23:48:54.367Z,2.78
2019-02-02T23:52:09.751Z,2.61
2019-02-02T23:55:24.878Z,2.60
2019-02-02T23:58:40.114Z,2.60
